sensor_id;sensor_type;location;lat;lon;timestamp;temperature;humidity
19868;DHT22;10096;51.112;6.776;2022-10-16T00:01:27;14.50;1.00
19868;DHT22;10096;51.112;6.776;2022-10-16T00:03:55;14.60;99.90
19868;DHT22;10096;51.112;6.776;2022-10-16T00:06:23;14.50;99.90
19868;DHT22;10096;51.112;6.776;2022-10-16T00:08:50;14.50;96.00
19868;DHT22;10096;51.112;6.776;2022-10-16T00:11:19;14.50;1.00
19868;DHT22;10096;51.112;6.776;2022-10-16T00:13:48;14.50;33.60
19868;DHT22;10096;51.112;6.776;2022-10-16T00:16:17;14.40;1.00
19868;DHT22;10096;51.112;6.776;2022-10-16T00:18:45;14.40;5.40
19868;DHT22;10096;51.112;6.776;2022-10-16T00:21:15;14.40;1.00
19868;DHT22;10096;51.112;6.776;2022-10-16T00:23:42;14.40;99.90
19868;DHT22;10096;51.112;6.776;2022-10-16T00:26:11;14.40;29.90
19868;DHT22;10096;51.112;6.776;2022-10-16T00:28:39;14.30;99.90
19868;DHT22;10096;51.112;6.776;2022-10-16T00:31:07;14.30;1.00
19868;DHT22;10096;51.112;6.776;2022-10-16T00:33:38;14.20;1.00
19868;DHT22;10096;51.112;6.776;2022-10-16T00:36:07;14.20;99.90
19868;DHT22;10096;51.112;6.776;2022-10-16T00:38:34;14.20;1.00
19868;DHT22;10096;51.112;6.776;2022-10-16T00:41:03;14.10;99.90
19868;DHT22;10096;51.112;6.776;2022-10-16T00:43:36;14.10;99.90
19868;DHT22;10096;51.112;6.776;2022-10-16T00:46:10;14.10;1.00
19868;DHT22;10096;51.112;6.776;2022-10-16T00:48:39;14.10;1.00
19868;DHT22;10096;51.112;6.776;2022-10-16T00:51:07;14.10;1.00
19868;DHT22;10096;51.112;6.776;2022-10-16T00:53:35;14.00;1.00
19868;DHT22;10096;51.112;6.776;2022-10-16T00:56:02;14.00;99.90
19868;DHT22;10096;51.112;6.776;2022-10-16T00:58:30;13.90;1.00
19868;DHT22;10096;51.112;6.776;2022-10-16T01:00:57;13.90;99.90
19868;DHT22;10096;51.112;6.776;2022-10-16T01:03:29;13.90;1.00
19868;DHT22;10096;51.112;6.776;2022-10-16T01:06:09;13.90;1.00
19868;DHT22;10096;51.112;6.776;2022-10-16T01:08:48;13.90;1.00
19868;DHT22;10096;51.112;6.776;2022-10-16T01:11:22;14.10;99.90
19868;DHT22;10096;51.112;6.776;2022-10-16T01:13:54;14.00;1.00
19868;DHT22;10096;51.112;6.776;2022-10-16T01:16:30;14.20;1.00
19868;DHT22;10096;51.112;6.776;2022-10-16T01:19:07;13.90;1.00
19868;DHT22;10096;51.112;6.776;2022-10-16T01:21:41;14.20;1.00
19868;DHT22;10096;51.112;6.776;2022-10-16T01:24:16;14.00;1.00
19868;DHT22;10096;51.112;6.776;2022-10-16T01:27:07;14.20;1.00
19868;DHT22;10096;51.112;6.776;2022-10-16T01:29:37;13.70;1.00
19868;DHT22;10096;51.112;6.776;2022-10-16T01:32:11;14.00;99.90
19868;DHT22;10096;51.112;6.776;2022-10-16T01:34:47;14.20;99.90
19868;DHT22;10096;51.112;6.776;2022-10-16T01:37:18;14.00;99.90
19868;DHT22;10096;51.112;6.776;2022-10-16T01:39:49;14.00;99.90
19868;DHT22;10096;51.112;6.776;2022-10-16T01:42:21;14.00;98.90
19868;DHT22;10096;51.112;6.776;2022-10-16T01:44:50;14.10;99.90
19868;DHT22;10096;51.112;6.776;2022-10-16T01:47:22;14.10;1.00
19868;DHT22;10096;51.112;6.776;2022-10-16T01:49:51;14.30;1.00
19868;DHT22;10096;51.112;6.776;2022-10-16T01:52:21;14.10;99.90
19868;DHT22;10096;51.112;6.776;2022-10-16T01:54:52;14.10;99.90
19868;DHT22;10096;51.112;6.776;2022-10-16T01:57:21;14.20;99.90
19868;DHT22;10096;51.112;6.776;2022-10-16T01:59:55;14.30;99.90
19868;DHT22;10096;51.112;6.776;2022-10-16T02:02:27;14.30;99.90
19868;DHT22;10096;51.112;6.776;2022-10-16T02:04:58;14.40;1.00
19868;DHT22;10096;51.112;6.776;2022-10-16T02:07:28;14.40;99.90
19868;DHT22;10096;51.112;6.776;2022-10-16T02:09:55;14.40;31.30
19868;DHT22;10096;51.112;6.776;2022-10-16T02:12:27;14.50;1.00
19868;DHT22;10096;51.112;6.776;2022-10-16T02:15:01;14.50;1.00
19868;DHT22;10096;51.112;6.776;2022-10-16T02:17:28;14.60;1.00
19868;DHT22;10096;51.112;6.776;2022-10-16T02:19:56;14.50;1.00
19868;DHT22;10096;51.112;6.776;2022-10-16T02:22:27;14.60;1.00
19868;DHT22;10096;51.112;6.776;2022-10-16T02:24:59;14.50;1.00
19868;DHT22;10096;51.112;6.776;2022-10-16T02:27:34;14.50;99.90
19868;DHT22;10096;51.112;6.776;2022-10-16T02:30:06;14.50;99.90
19868;DHT22;10096;51.112;6.776;2022-10-16T02:32:37;14.50;99.90
19868;DHT22;10096;51.112;6.776;2022-10-16T02:35:05;14.50;99.90
19868;DHT22;10096;51.112;6.776;2022-10-16T02:37:34;14.50;99.90
19868;DHT22;10096;51.112;6.776;2022-10-16T02:40:01;14.50;99.90
19868;DHT22;10096;51.112;6.776;2022-10-16T02:42:36;14.50;99.90
19868;DHT22;10096;51.112;6.776;2022-10-16T02:45:04;14.50;99.90
19868;DHT22;10096;51.112;6.776;2022-10-16T02:47:32;14.60;99.90
19868;DHT22;10096;51.112;6.776;2022-10-16T02:49:59;14.60;99.90
19868;DHT22;10096;51.112;6.776;2022-10-16T02:52:27;14.60;99.90
19868;DHT22;10096;51.112;6.776;2022-10-16T02:54:54;14.80;99.90
19868;DHT22;10096;51.112;6.776;2022-10-16T02:57:22;14.50;99.90
19868;DHT22;10096;51.112;6.776;2022-10-16T02:59:50;14.50;99.90
19868;DHT22;10096;51.112;6.776;2022-10-16T03:02:17;14.50;82.60
19868;DHT22;10096;51.112;6.776;2022-10-16T03:04:44;14.40;74.60
19868;DHT22;10096;51.112;6.776;2022-10-16T03:07:11;14.40;99.90
19868;DHT22;10096;51.112;6.776;2022-10-16T03:09:38;14.40;84.10
19868;DHT22;10096;51.112;6.776;2022-10-16T03:12:05;14.40;37.10
19868;DHT22;10096;51.112;6.776;2022-10-16T03:14:32;14.60;38.70
19868;DHT22;10096;51.112;6.776;2022-10-16T03:17:01;14.30;51.70
19868;DHT22;10096;51.112;6.776;2022-10-16T03:19:28;14.50;72.80
19868;DHT22;10096;51.112;6.776;2022-10-16T03:21:55;14.40;53.70
19868;DHT22;10096;51.112;6.776;2022-10-16T03:24:22;14.30;1.00
19868;DHT22;10096;51.112;6.776;2022-10-16T03:26:49;14.30;1.00
19868;DHT22;10096;51.112;6.776;2022-10-16T03:29:16;14.50;1.00
19868;DHT22;10096;51.112;6.776;2022-10-16T03:31:43;14.40;1.00
19868;DHT22;10096;51.112;6.776;2022-10-16T03:34:12;14.40;1.00
19868;DHT22;10096;51.112;6.776;2022-10-16T03:36:39;14.40;58.50
19868;DHT22;10096;51.112;6.776;2022-10-16T03:39:06;14.30;1.00
19868;DHT22;10096;51.112;6.776;2022-10-16T03:41:33;14.40;1.00
19868;DHT22;10096;51.112;6.776;2022-10-16T03:44:00;14.20;1.00
19868;DHT22;10096;51.112;6.776;2022-10-16T03:46:27;14.30;1.00
19868;DHT22;10096;51.112;6.776;2022-10-16T03:48:55;14.40;1.00
19868;DHT22;10096;51.112;6.776;2022-10-16T03:51:23;14.40;1.00
19868;DHT22;10096;51.112;6.776;2022-10-16T03:53:51;14.10;1.00
19868;DHT22;10096;51.112;6.776;2022-10-16T03:56:18;14.30;1.00
19868;DHT22;10096;51.112;6.776;2022-10-16T03:58:45;14.10;1.00
19868;DHT22;10096;51.112;6.776;2022-10-16T04:01:12;14.00;1.00
19868;DHT22;10096;51.112;6.776;2022-10-16T04:03:39;14.00;1.00
19868;DHT22;10096;51.112;6.776;2022-10-16T04:06:06;14.00;1.00
19868;DHT22;10096;51.112;6.776;2022-10-16T04:08:35;14.20;1.00
19868;DHT22;10096;51.112;6.776;2022-10-16T04:11:05;14.00;1.00
19868;DHT22;10096;51.112;6.776;2022-10-16T04:13:32;14.00;1.00
19868;DHT22;10096;51.112;6.776;2022-10-16T04:15:59;13.90;1.00
19868;DHT22;10096;51.112;6.776;2022-10-16T04:18:25;13.90;1.00
19868;DHT22;10096;51.112;6.776;2022-10-16T04:20:53;13.90;1.00
19868;DHT22;10096;51.112;6.776;2022-10-16T04:23:20;13.90;1.00
19868;DHT22;10096;51.112;6.776;2022-10-16T04:25:50;13.90;1.00
19868;DHT22;10096;51.112;6.776;2022-10-16T04:28:17;13.90;1.00
19868;DHT22;10096;51.112;6.776;2022-10-16T04:30:45;13.90;1.00
19868;DHT22;10096;51.112;6.776;2022-10-16T04:33:12;13.90;1.00
19868;DHT22;10096;51.112;6.776;2022-10-16T04:35:39;13.80;1.00
19868;DHT22;10096;51.112;6.776;2022-10-16T04:38:06;13.90;1.00
19868;DHT22;10096;51.112;6.776;2022-10-16T04:40:33;13.80;1.00
19868;DHT22;10096;51.112;6.776;2022-10-16T04:43:03;13.80;1.00
19868;DHT22;10096;51.112;6.776;2022-10-16T04:45:30;13.90;1.00
19868;DHT22;10096;51.112;6.776;2022-10-16T04:47:57;13.80;1.00
19868;DHT22;10096;51.112;6.776;2022-10-16T04:50:25;13.80;1.00
19868;DHT22;10096;51.112;6.776;2022-10-16T04:52:52;13.80;1.00
19868;DHT22;10096;51.112;6.776;2022-10-16T04:55:19;13.80;1.00
19868;DHT22;10096;51.112;6.776;2022-10-16T04:57:46;13.80;1.00
19868;DHT22;10096;51.112;6.776;2022-10-16T05:00:15;13.80;1.00
19868;DHT22;10096;51.112;6.776;2022-10-16T05:02:42;13.80;1.00
19868;DHT22;10096;51.112;6.776;2022-10-16T05:05:09;14.00;1.00
19868;DHT22;10096;51.112;6.776;2022-10-16T05:07:36;13.80;1.00
19868;DHT22;10096;51.112;6.776;2022-10-16T05:10:04;13.80;1.00
19868;DHT22;10096;51.112;6.776;2022-10-16T05:12:32;13.70;1.00
19868;DHT22;10096;51.112;6.776;2022-10-16T05:14:59;13.70;1.00
19868;DHT22;10096;51.112;6.776;2022-10-16T05:17:27;13.70;1.00
19868;DHT22;10096;51.112;6.776;2022-10-16T05:19:54;13.80;1.00
19868;DHT22;10096;51.112;6.776;2022-10-16T05:22:21;13.60;1.00
19868;DHT22;10096;51.112;6.776;2022-10-16T05:24:48;13.70;16.90
19868;DHT22;10096;51.112;6.776;2022-10-16T05:27:15;13.80;1.00
19868;DHT22;10096;51.112;6.776;2022-10-16T05:29:45;13.70;1.00
19868;DHT22;10096;51.112;6.776;2022-10-16T05:32:13;13.70;1.00
19868;DHT22;10096;51.112;6.776;2022-10-16T05:34:42;13.70;1.00
19868;DHT22;10096;51.112;6.776;2022-10-16T05:37:09;13.70;1.00
19868;DHT22;10096;51.112;6.776;2022-10-16T05:39:37;13.60;1.00
19868;DHT22;10096;51.112;6.776;2022-10-16T05:42:04;13.60;98.40
19868;DHT22;10096;51.112;6.776;2022-10-16T05:44:31;13.70;99.90
19868;DHT22;10096;51.112;6.776;2022-10-16T05:46:58;13.70;99.90
19868;DHT22;10096;51.112;6.776;2022-10-16T05:49:25;13.70;99.90
19868;DHT22;10096;51.112;6.776;2022-10-16T05:51:53;13.90;99.90
19868;DHT22;10096;51.112;6.776;2022-10-16T05:54:20;13.80;78.90
19868;DHT22;10096;51.112;6.776;2022-10-16T05:56:47;13.80;34.20
19868;DHT22;10096;51.112;6.776;2022-10-16T05:59:14;13.80;47.30
19868;DHT22;10096;51.112;6.776;2022-10-16T06:01:41;13.80;1.00
19868;DHT22;10096;51.112;6.776;2022-10-16T06:04:08;14.00;1.00
19868;DHT22;10096;51.112;6.776;2022-10-16T06:06:35;14.00;43.20
19868;DHT22;10096;51.112;6.776;2022-10-16T06:09:04;13.80;51.90
19868;DHT22;10096;51.112;6.776;2022-10-16T06:11:32;13.80;44.10
19868;DHT22;10096;51.112;6.776;2022-10-16T06:14:00;13.90;99.90
19868;DHT22;10096;51.112;6.776;2022-10-16T06:16:32;14.00;84.60
19868;DHT22;10096;51.112;6.776;2022-10-16T06:18:59;14.10;1.00
19868;DHT22;10096;51.112;6.776;2022-10-16T06:21:28;14.00;1.00
19868;DHT22;10096;51.112;6.776;2022-10-16T06:23:56;14.10;1.00
19868;DHT22;10096;51.112;6.776;2022-10-16T06:26:26;14.10;1.00
19868;DHT22;10096;51.112;6.776;2022-10-16T06:28:54;14.10;1.00
19868;DHT22;10096;51.112;6.776;2022-10-16T06:31:21;14.20;1.00
19868;DHT22;10096;51.112;6.776;2022-10-16T06:33:53;14.20;1.00
19868;DHT22;10096;51.112;6.776;2022-10-16T06:36:20;14.20;1.00
19868;DHT22;10096;51.112;6.776;2022-10-16T06:38:47;14.20;1.00
19868;DHT22;10096;51.112;6.776;2022-10-16T06:41:17;14.20;1.00
19868;DHT22;10096;51.112;6.776;2022-10-16T06:43:46;14.50;1.00
19868;DHT22;10096;51.112;6.776;2022-10-16T06:46:14;14.40;1.00
19868;DHT22;10096;51.112;6.776;2022-10-16T06:48:41;14.90;1.00
19868;DHT22;10096;51.112;6.776;2022-10-16T06:51:10;15.60;99.90
19868;DHT22;10096;51.112;6.776;2022-10-16T06:53:39;16.20;1.00
19868;DHT22;10096;51.112;6.776;2022-10-16T06:56:07;16.30;1.00
19868;DHT22;10096;51.112;6.776;2022-10-16T06:58:34;16.50;99.90
19868;DHT22;10096;51.112;6.776;2022-10-16T07:01:03;17.70;97.00
19868;DHT22;10096;51.112;6.776;2022-10-16T07:03:31;17.80;1.00
19868;DHT22;10096;51.112;6.776;2022-10-16T07:06:01;17.50;1.00
19868;DHT22;10096;51.112;6.776;2022-10-16T07:08:31;17.20;1.00
19868;DHT22;10096;51.112;6.776;2022-10-16T07:11:00;16.80;1.00
19868;DHT22;10096;51.112;6.776;2022-10-16T07:13:27;16.60;11.70
19868;DHT22;10096;51.112;6.776;2022-10-16T07:15:54;16.40;96.00
19868;DHT22;10096;51.112;6.776;2022-10-16T07:18:23;16.20;99.90
19868;DHT22;10096;51.112;6.776;2022-10-16T07:20:52;16.00;99.90
19868;DHT22;10096;51.112;6.776;2022-10-16T07:23:19;15.80;99.90
19868;DHT22;10096;51.112;6.776;2022-10-16T07:25:53;15.60;99.90
19868;DHT22;10096;51.112;6.776;2022-10-16T07:28:20;15.70;99.90
19868;DHT22;10096;51.112;6.776;2022-10-16T07:30:48;15.90;99.90
19868;DHT22;10096;51.112;6.776;2022-10-16T07:33:16;16.80;99.90
19868;DHT22;10096;51.112;6.776;2022-10-16T07:35:52;17.30;1.00
19868;DHT22;10096;51.112;6.776;2022-10-16T07:38:20;17.00;1.00
19868;DHT22;10096;51.112;6.776;2022-10-16T07:40:48;16.90;1.00
19868;DHT22;10096;51.112;6.776;2022-10-16T07:43:15;16.50;1.00
19868;DHT22;10096;51.112;6.776;2022-10-16T07:45:49;16.10;86.00
19868;DHT22;10096;51.112;6.776;2022-10-16T07:48:16;15.90;99.90
19868;DHT22;10096;51.112;6.776;2022-10-16T07:50:44;16.50;99.90
19868;DHT22;10096;51.112;6.776;2022-10-16T07:53:12;18.00;4.40
19868;DHT22;10096;51.112;6.776;2022-10-16T07:55:40;19.10;1.00
19868;DHT22;10096;51.112;6.776;2022-10-16T07:58:07;19.80;1.00
19868;DHT22;10096;51.112;6.776;2022-10-16T08:00:36;20.30;1.00
19868;DHT22;10096;51.112;6.776;2022-10-16T08:03:03;20.40;1.00
19868;DHT22;10096;51.112;6.776;2022-10-16T08:05:32;19.90;1.00
19868;DHT22;10096;51.112;6.776;2022-10-16T08:07:59;19.10;1.00
19868;DHT22;10096;51.112;6.776;2022-10-16T08:10:28;18.40;1.00
19868;DHT22;10096;51.112;6.776;2022-10-16T08:12:57;18.10;1.00
19868;DHT22;10096;51.112;6.776;2022-10-16T08:15:24;18.00;1.00
19868;DHT22;10096;51.112;6.776;2022-10-16T08:17:59;18.00;1.00
19868;DHT22;10096;51.112;6.776;2022-10-16T08:20:26;18.10;1.00
19868;DHT22;10096;51.112;6.776;2022-10-16T08:22:54;18.20;1.00
19868;DHT22;10096;51.112;6.776;2022-10-16T08:25:21;18.20;1.00
19868;DHT22;10096;51.112;6.776;2022-10-16T08:27:50;18.00;1.00
19868;DHT22;10096;51.112;6.776;2022-10-16T08:30:18;17.90;1.00
19868;DHT22;10096;51.112;6.776;2022-10-16T08:32:45;18.00;1.00
19868;DHT22;10096;51.112;6.776;2022-10-16T08:35:13;18.30;1.00
19868;DHT22;10096;51.112;6.776;2022-10-16T08:37:41;18.10;1.00
19868;DHT22;10096;51.112;6.776;2022-10-16T08:40:16;18.10;1.00
19868;DHT22;10096;51.112;6.776;2022-10-16T08:43:04;18.10;1.00
19868;DHT22;10096;51.112;6.776;2022-10-16T08:45:43;18.20;1.00
19868;DHT22;10096;51.112;6.776;2022-10-16T08:48:20;18.10;1.00
19868;DHT22;10096;51.112;6.776;2022-10-16T08:50:51;18.10;1.00
19868;DHT22;10096;51.112;6.776;2022-10-16T08:53:23;18.20;1.00
19868;DHT22;10096;51.112;6.776;2022-10-16T08:55:52;18.30;1.00
19868;DHT22;10096;51.112;6.776;2022-10-16T08:58:23;18.30;1.00
19868;DHT22;10096;51.112;6.776;2022-10-16T09:00:55;18.30;1.00
19868;DHT22;10096;51.112;6.776;2022-10-16T09:03:33;18.40;1.00
19868;DHT22;10096;51.112;6.776;2022-10-16T09:06:24;18.40;1.00
19868;DHT22;10096;51.112;6.776;2022-10-16T09:11:55;18.40;1.00
19868;DHT22;10096;51.112;6.776;2022-10-16T09:14:50;18.40;1.00
19868;DHT22;10096;51.112;6.776;2022-10-16T09:17:34;18.50;1.00
19868;DHT22;10096;51.112;6.776;2022-10-16T09:20:17;18.60;1.00
19868;DHT22;10096;51.112;6.776;2022-10-16T09:22:45;18.60;1.00
19868;DHT22;10096;51.112;6.776;2022-10-16T09:25:15;18.70;1.00
19868;DHT22;10096;51.112;6.776;2022-10-16T09:27:45;18.90;1.00
19868;DHT22;10096;51.112;6.776;2022-10-16T09:30:17;18.70;1.00
19868;DHT22;10096;51.112;6.776;2022-10-16T09:32:47;18.80;1.00
19868;DHT22;10096;51.112;6.776;2022-10-16T09:35:17;18.90;1.00
19868;DHT22;10096;51.112;6.776;2022-10-16T09:37:46;19.00;1.00
19868;DHT22;10096;51.112;6.776;2022-10-16T09:40:24;19.00;1.00
19868;DHT22;10096;51.112;6.776;2022-10-16T09:43:00;19.10;1.00
19868;DHT22;10096;51.112;6.776;2022-10-16T09:45:32;19.20;1.00
19868;DHT22;10096;51.112;6.776;2022-10-16T09:48:01;19.20;1.00
19868;DHT22;10096;51.112;6.776;2022-10-16T09:50:36;19.20;1.00
19868;DHT22;10096;51.112;6.776;2022-10-16T09:53:11;19.20;1.00
19868;DHT22;10096;51.112;6.776;2022-10-16T09:55:48;19.20;1.00
19868;DHT22;10096;51.112;6.776;2022-10-16T09:58:16;19.20;1.00
19868;DHT22;10096;51.112;6.776;2022-10-16T10:00:49;19.20;1.00
19868;DHT22;10096;51.112;6.776;2022-10-16T10:03:33;19.20;1.00
19868;DHT22;10096;51.112;6.776;2022-10-16T10:06:07;19.30;1.00
19868;DHT22;10096;51.112;6.776;2022-10-16T10:08:41;19.40;1.00
19868;DHT22;10096;51.112;6.776;2022-10-16T10:11:08;19.50;1.00
19868;DHT22;10096;51.112;6.776;2022-10-16T10:13:35;19.50;1.00
19868;DHT22;10096;51.112;6.776;2022-10-16T10:16:04;19.60;1.00
19868;DHT22;10096;51.112;6.776;2022-10-16T10:18:31;19.70;1.00
19868;DHT22;10096;51.112;6.776;2022-10-16T10:20:58;19.70;1.00
19868;DHT22;10096;51.112;6.776;2022-10-16T10:23:28;19.80;1.00
19868;DHT22;10096;51.112;6.776;2022-10-16T10:25:59;19.90;1.00
19868;DHT22;10096;51.112;6.776;2022-10-16T10:28:47;19.80;1.00
19868;DHT22;10096;51.112;6.776;2022-10-16T10:31:26;19.80;1.00
19868;DHT22;10096;51.112;6.776;2022-10-16T10:33:59;19.80;1.00
19868;DHT22;10096;51.112;6.776;2022-10-16T10:36:30;20.10;1.00
19868;DHT22;10096;51.112;6.776;2022-10-16T10:39:00;20.10;1.00
19868;DHT22;10096;51.112;6.776;2022-10-16T10:41:58;20.00;1.00
19868;DHT22;10096;51.112;6.776;2022-10-16T10:44:37;20.10;1.00
19868;DHT22;10096;51.112;6.776;2022-10-16T10:47:13;20.30;1.00
19868;DHT22;10096;51.112;6.776;2022-10-16T10:49:52;20.40;1.00
19868;DHT22;10096;51.112;6.776;2022-10-16T10:52:43;20.30;1.00
19868;DHT22;10096;51.112;6.776;2022-10-16T10:55:22;20.20;1.00
19868;DHT22;10096;51.112;6.776;2022-10-16T10:58:08;20.10;1.00
19868;DHT22;10096;51.112;6.776;2022-10-16T11:00:49;20.00;1.00
19868;DHT22;10096;51.112;6.776;2022-10-16T11:03:31;19.90;1.00
19868;DHT22;10096;51.112;6.776;2022-10-16T11:06:06;19.90;1.00
19868;DHT22;10096;51.112;6.776;2022-10-16T11:08:37;19.90;1.00
19868;DHT22;10096;51.112;6.776;2022-10-16T11:11:10;19.90;1.00
19868;DHT22;10096;51.112;6.776;2022-10-16T11:13:42;19.90;1.00
19868;DHT22;10096;51.112;6.776;2022-10-16T11:16:16;19.90;1.00
19868;DHT22;10096;51.112;6.776;2022-10-16T11:18:52;19.80;1.00
19868;DHT22;10096;51.112;6.776;2022-10-16T11:21:23;19.80;1.00
19868;DHT22;10096;51.112;6.776;2022-10-16T11:23:55;19.90;1.00
19868;DHT22;10096;51.112;6.776;2022-10-16T11:26:26;19.90;1.00
19868;DHT22;10096;51.112;6.776;2022-10-16T11:28:55;19.90;1.00
19868;DHT22;10096;51.112;6.776;2022-10-16T11:31:28;19.80;1.00
19868;DHT22;10096;51.112;6.776;2022-10-16T11:34:04;19.90;1.00
19868;DHT22;10096;51.112;6.776;2022-10-16T11:36:36;19.90;1.00
19868;DHT22;10096;51.112;6.776;2022-10-16T11:39:16;20.00;1.00
19868;DHT22;10096;51.112;6.776;2022-10-16T11:41:48;20.10;1.00
19868;DHT22;10096;51.112;6.776;2022-10-16T11:44:32;20.00;1.00
19868;DHT22;10096;51.112;6.776;2022-10-16T11:47:08;20.00;1.00
19868;DHT22;10096;51.112;6.776;2022-10-16T11:49:40;20.10;1.00
19868;DHT22;10096;51.112;6.776;2022-10-16T11:52:15;20.30;1.00
19868;DHT22;10096;51.112;6.776;2022-10-16T11:54:47;20.30;1.00
19868;DHT22;10096;51.112;6.776;2022-10-16T11:57:19;20.40;1.00
19868;DHT22;10096;51.112;6.776;2022-10-16T11:59:50;20.50;1.00
19868;DHT22;10096;51.112;6.776;2022-10-16T12:02:33;20.60;1.00
19868;DHT22;10096;51.112;6.776;2022-10-16T12:05:13;20.70;1.00
19868;DHT22;10096;51.112;6.776;2022-10-16T12:07:48;20.70;1.00
19868;DHT22;10096;51.112;6.776;2022-10-16T12:10:22;20.50;1.00
19868;DHT22;10096;51.112;6.776;2022-10-16T12:12:49;20.40;1.00
19868;DHT22;10096;51.112;6.776;2022-10-16T12:15:22;20.40;1.00
19868;DHT22;10096;51.112;6.776;2022-10-16T12:17:51;20.40;1.00
19868;DHT22;10096;51.112;6.776;2022-10-16T12:20:35;20.80;1.00
19868;DHT22;10096;51.112;6.776;2022-10-16T12:23:04;20.70;1.00
19868;DHT22;10096;51.112;6.776;2022-10-16T12:25:33;20.70;1.00
19868;DHT22;10096;51.112;6.776;2022-10-16T12:28:04;20.60;1.00
19868;DHT22;10096;51.112;6.776;2022-10-16T12:30:35;20.60;1.00
19868;DHT22;10096;51.112;6.776;2022-10-16T12:33:04;20.70;1.00
19868;DHT22;10096;51.112;6.776;2022-10-16T12:35:35;20.70;1.00
19868;DHT22;10096;51.112;6.776;2022-10-16T12:38:16;20.70;1.00
19868;DHT22;10096;51.112;6.776;2022-10-16T12:40:45;20.80;1.00
19868;DHT22;10096;51.112;6.776;2022-10-16T12:43:27;20.90;1.00
19868;DHT22;10096;51.112;6.776;2022-10-16T12:46:00;21.00;1.00
19868;DHT22;10096;51.112;6.776;2022-10-16T12:48:29;21.00;1.00
19868;DHT22;10096;51.112;6.776;2022-10-16T12:51:10;20.90;1.00
19868;DHT22;10096;51.112;6.776;2022-10-16T12:53:39;21.10;1.00
19868;DHT22;10096;51.112;6.776;2022-10-16T12:56:14;21.00;1.00
19868;DHT22;10096;51.112;6.776;2022-10-16T12:58:53;21.20;1.00
19868;DHT22;10096;51.112;6.776;2022-10-16T13:01:34;21.40;1.00
19868;DHT22;10096;51.112;6.776;2022-10-16T13:04:37;21.50;1.00
19868;DHT22;10096;51.112;6.776;2022-10-16T13:07:20;21.60;1.00
19868;DHT22;10096;51.112;6.776;2022-10-16T13:10:00;21.60;1.00
19868;DHT22;10096;51.112;6.776;2022-10-16T13:12:44;21.60;1.00
19868;DHT22;10096;51.112;6.776;2022-10-16T13:15:22;21.70;99.90
19868;DHT22;10096;51.112;6.776;2022-10-16T13:17:59;21.60;1.00
19868;DHT22;10096;51.112;6.776;2022-10-16T13:20:33;21.70;99.90
19868;DHT22;10096;51.112;6.776;2022-10-16T13:23:12;21.40;1.00
19868;DHT22;10096;51.112;6.776;2022-10-16T13:25:53;21.30;99.90
19868;DHT22;10096;51.112;6.776;2022-10-16T13:28:29;21.10;1.00
19868;DHT22;10096;51.112;6.776;2022-10-16T13:30:58;21.00;1.00
19868;DHT22;10096;51.112;6.776;2022-10-16T13:33:32;21.00;1.00
19868;DHT22;10096;51.112;6.776;2022-10-16T13:35:59;21.00;1.00
19868;DHT22;10096;51.112;6.776;2022-10-16T13:38:31;21.00;1.00
19868;DHT22;10096;51.112;6.776;2022-10-16T13:41:00;21.00;1.00
19868;DHT22;10096;51.112;6.776;2022-10-16T13:43:35;21.20;99.90
19868;DHT22;10096;51.112;6.776;2022-10-16T13:46:05;21.00;99.90
19868;DHT22;10096;51.112;6.776;2022-10-16T13:48:33;21.00;99.90
19868;DHT22;10096;51.112;6.776;2022-10-16T13:51:06;21.00;99.90
19868;DHT22;10096;51.112;6.776;2022-10-16T13:53:35;20.80;99.90
19868;DHT22;10096;51.112;6.776;2022-10-16T13:56:05;20.80;99.90
19868;DHT22;10096;51.112;6.776;2022-10-16T13:58:34;20.60;99.90
19868;DHT22;10096;51.112;6.776;2022-10-16T14:01:03;20.30;99.90
19868;DHT22;10096;51.112;6.776;2022-10-16T14:03:32;20.50;99.90
19868;DHT22;10096;51.112;6.776;2022-10-16T14:06:03;20.50;99.90
19868;DHT22;10096;51.112;6.776;2022-10-16T14:08:31;20.50;99.90
19868;DHT22;10096;51.112;6.776;2022-10-16T14:11:01;20.60;99.90
19868;DHT22;10096;51.112;6.776;2022-10-16T14:13:31;20.40;99.90
19868;DHT22;10096;51.112;6.776;2022-10-16T14:16:04;20.50;99.90
19868;DHT22;10096;51.112;6.776;2022-10-16T14:18:32;20.70;1.00
19868;DHT22;10096;51.112;6.776;2022-10-16T14:21:03;20.80;99.90
19868;DHT22;10096;51.112;6.776;2022-10-16T14:23:33;20.80;99.90
19868;DHT22;10096;51.112;6.776;2022-10-16T14:26:15;20.80;99.90
19868;DHT22;10096;51.112;6.776;2022-10-16T14:28:43;20.90;99.90
19868;DHT22;10096;51.112;6.776;2022-10-16T14:31:29;20.80;99.90
19868;DHT22;10096;51.112;6.776;2022-10-16T14:33:57;20.90;99.90
19868;DHT22;10096;51.112;6.776;2022-10-16T14:36:25;20.70;99.90
19868;DHT22;10096;51.112;6.776;2022-10-16T14:38:58;20.70;99.90
19868;DHT22;10096;51.112;6.776;2022-10-16T14:41:29;20.70;99.90
19868;DHT22;10096;51.112;6.776;2022-10-16T14:44:01;20.70;99.90
19868;DHT22;10096;51.112;6.776;2022-10-16T14:46:32;20.70;99.90
19868;DHT22;10096;51.112;6.776;2022-10-16T14:49:03;20.80;99.90
19868;DHT22;10096;51.112;6.776;2022-10-16T14:51:31;20.80;99.90
19868;DHT22;10096;51.112;6.776;2022-10-16T14:53:58;20.80;99.90
19868;DHT22;10096;51.112;6.776;2022-10-16T14:56:31;20.90;99.90
19868;DHT22;10096;51.112;6.776;2022-10-16T14:59:00;20.90;1.00
19868;DHT22;10096;51.112;6.776;2022-10-16T15:01:28;20.80;99.90
19868;DHT22;10096;51.112;6.776;2022-10-16T15:03:55;20.80;99.90
19868;DHT22;10096;51.112;6.776;2022-10-16T15:06:23;20.80;99.90
19868;DHT22;10096;51.112;6.776;2022-10-16T15:09:01;20.60;1.00
19868;DHT22;10096;51.112;6.776;2022-10-16T15:11:32;20.50;1.00
19868;DHT22;10096;51.112;6.776;2022-10-16T15:13:59;20.40;1.00
19868;DHT22;10096;51.112;6.776;2022-10-16T15:16:26;20.30;1.00
19868;DHT22;10096;51.112;6.776;2022-10-16T15:18:53;20.30;1.00
19868;DHT22;10096;51.112;6.776;2022-10-16T15:21:23;20.30;1.00
19868;DHT22;10096;51.112;6.776;2022-10-16T15:23:51;20.30;1.00
19868;DHT22;10096;51.112;6.776;2022-10-16T15:26:18;20.50;1.00
19868;DHT22;10096;51.112;6.776;2022-10-16T15:28:48;20.20;1.00
19868;DHT22;10096;51.112;6.776;2022-10-16T15:31:15;20.20;1.00
19868;DHT22;10096;51.112;6.776;2022-10-16T15:33:42;20.30;1.00
19868;DHT22;10096;51.112;6.776;2022-10-16T15:36:09;20.10;1.00
19868;DHT22;10096;51.112;6.776;2022-10-16T15:38:39;20.00;1.00
19868;DHT22;10096;51.112;6.776;2022-10-16T15:41:06;19.90;1.00
19868;DHT22;10096;51.112;6.776;2022-10-16T15:43:33;19.70;1.00
19868;DHT22;10096;51.112;6.776;2022-10-16T15:46:03;19.70;1.00
19868;DHT22;10096;51.112;6.776;2022-10-16T15:48:32;19.50;1.00
19868;DHT22;10096;51.112;6.776;2022-10-16T15:51:00;19.30;1.00
19868;DHT22;10096;51.112;6.776;2022-10-16T15:53:31;19.40;1.00
19868;DHT22;10096;51.112;6.776;2022-10-16T15:56:01;19.20;1.00
19868;DHT22;10096;51.112;6.776;2022-10-16T15:58:29;19.20;1.00
19868;DHT22;10096;51.112;6.776;2022-10-16T16:00:57;19.20;1.00
19868;DHT22;10096;51.112;6.776;2022-10-16T16:03:28;19.20;1.00
19868;DHT22;10096;51.112;6.776;2022-10-16T16:05:56;19.20;1.00
19868;DHT22;10096;51.112;6.776;2022-10-16T16:08:25;19.20;1.00